sensor_id;sensor_type;location;lat;lon;timestamp;temperature;humidity
11043;DHT22;5574;48.786;10.120;2023-06-04T00:00:26;15.90;91.40
11043;DHT22;5574;48.786;10.120;2023-06-04T00:02:52;15.90;91.30
11043;DHT22;5574;48.786;10.120;2023-06-04T00:05:19;15.80;91.30
11043;DHT22;5574;48.786;10.120;2023-06-04T00:07:48;15.80;91.20
11043;DHT22;5574;48.786;10.120;2023-06-04T00:10:14;15.80;90.20
11043;DHT22;5574;48.786;10.120;2023-06-04T00:12:41;15.70;89.00
11043;DHT22;5574;48.786;10.120;2023-06-04T00:15:08;15.80;90.40
11043;DHT22;5574;48.786;10.120;2023-06-04T00:17:35;15.70;90.50
11043;DHT22;5574;48.786;10.120;2023-06-04T00:20:02;15.70;88.00
11043;DHT22;5574;48.786;10.120;2023-06-04T00:22:28;15.70;92.00
11043;DHT22;5574;48.786;10.120;2023-06-04T00:24:56;15.80;90.60
11043;DHT22;5574;48.786;10.120;2023-06-04T00:27:23;15.80;91.30
11043;DHT22;5574;48.786;10.120;2023-06-04T00:29:50;15.70;90.70
11043;DHT22;5574;48.786;10.120;2023-06-04T00:32:16;15.70;91.00
11043;DHT22;5574;48.786;10.120;2023-06-04T00:34:43;15.70;91.40
11043;DHT22;5574;48.786;10.120;2023-06-04T00:37:10;15.70;90.40
11043;DHT22;5574;48.786;10.120;2023-06-04T00:39:36;15.70;89.90
11043;DHT22;5574;48.786;10.120;2023-06-04T00:42:05;15.70;88.90
11043;DHT22;5574;48.786;10.120;2023-06-04T00:44:32;15.60;90.70
11043;DHT22;5574;48.786;10.120;2023-06-04T00:46:59;15.60;89.80
11043;DHT22;5574;48.786;10.120;2023-06-04T00:49:25;15.60;91.20
11043;DHT22;5574;48.786;10.120;2023-06-04T00:51:52;15.60;89.70
11043;DHT22;5574;48.786;10.120;2023-06-04T00:54:19;15.60;90.40
11043;DHT22;5574;48.786;10.120;2023-06-04T00:56:47;15.50;90.20
11043;DHT22;5574;48.786;10.120;2023-06-04T00:59:16;15.60;91.20
11043;DHT22;5574;48.786;10.120;2023-06-04T01:01:46;15.50;91.00
11043;DHT22;5574;48.786;10.120;2023-06-04T01:04:18;15.50;90.10
11043;DHT22;5574;48.786;10.120;2023-06-04T01:06:49;15.40;87.50
11043;DHT22;5574;48.786;10.120;2023-06-04T01:09:16;15.30;90.60
11043;DHT22;5574;48.786;10.120;2023-06-04T01:11:44;15.30;90.10
11043;DHT22;5574;48.786;10.120;2023-06-04T01:14:11;15.20;88.70
11043;DHT22;5574;48.786;10.120;2023-06-04T01:16:45;15.20;89.90
11043;DHT22;5574;48.786;10.120;2023-06-04T01:19:27;15.20;90.10
11043;DHT22;5574;48.786;10.120;2023-06-04T01:22:06;15.20;89.50
11043;DHT22;5574;48.786;10.120;2023-06-04T01:24:37;15.20;89.80
11043;DHT22;5574;48.786;10.120;2023-06-04T01:27:07;15.10;88.70
11043;DHT22;5574;48.786;10.120;2023-06-04T01:29:34;15.10;90.50
11043;DHT22;5574;48.786;10.120;2023-06-04T01:32:04;15.00;87.10
11043;DHT22;5574;48.786;10.120;2023-06-04T01:34:31;15.00;87.30
11043;DHT22;5574;48.786;10.120;2023-06-04T01:37:09;14.90;88.10
11043;DHT22;5574;48.786;10.120;2023-06-04T01:39:37;14.90;90.10
11043;DHT22;5574;48.786;10.120;2023-06-04T01:42:04;14.80;87.80
11043;DHT22;5574;48.786;10.120;2023-06-04T01:44:31;14.70;90.20
11043;DHT22;5574;48.786;10.120;2023-06-04T01:46:57;14.80;90.10
11043;DHT22;5574;48.786;10.120;2023-06-04T01:49:25;14.80;90.80
11043;DHT22;5574;48.786;10.120;2023-06-04T01:51:52;14.80;90.50
11043;DHT22;5574;48.786;10.120;2023-06-04T01:54:19;14.70;89.30
11043;DHT22;5574;48.786;10.120;2023-06-04T01:56:45;14.70;90.70
11043;DHT22;5574;48.786;10.120;2023-06-04T01:59:13;14.70;90.80
11043;DHT22;5574;48.786;10.120;2023-06-04T02:01:41;14.70;91.20
11043;DHT22;5574;48.786;10.120;2023-06-04T02:04:08;14.60;90.50
11043;DHT22;5574;48.786;10.120;2023-06-04T02:06:36;14.60;88.30
11043;DHT22;5574;48.786;10.120;2023-06-04T02:09:03;14.60;89.50
11043;DHT22;5574;48.786;10.120;2023-06-04T02:11:30;14.50;88.90
11043;DHT22;5574;48.786;10.120;2023-06-04T02:13:57;14.50;90.60
11043;DHT22;5574;48.786;10.120;2023-06-04T02:16:23;14.50;90.00
11043;DHT22;5574;48.786;10.120;2023-06-04T02:18:50;14.40;89.80
11043;DHT22;5574;48.786;10.120;2023-06-04T02:21:17;14.40;89.50
11043;DHT22;5574;48.786;10.120;2023-06-04T02:23:45;14.40;90.10
11043;DHT22;5574;48.786;10.120;2023-06-04T02:26:11;14.30;90.10
11043;DHT22;5574;48.786;10.120;2023-06-04T02:28:38;14.40;88.40
11043;DHT22;5574;48.786;10.120;2023-06-04T02:31:05;14.30;88.40
11043;DHT22;5574;48.786;10.120;2023-06-04T02:33:31;14.30;90.50
11043;DHT22;5574;48.786;10.120;2023-06-04T02:35:58;14.30;88.70
11043;DHT22;5574;48.786;10.120;2023-06-04T02:38:25;14.30;88.70
11043;DHT22;5574;48.786;10.120;2023-06-04T02:40:53;14.40;91.90
11043;DHT22;5574;48.786;10.120;2023-06-04T02:43:20;14.40;92.50
11043;DHT22;5574;48.786;10.120;2023-06-04T02:45:46;14.40;90.00
11043;DHT22;5574;48.786;10.120;2023-06-04T02:48:13;14.30;89.40
11043;DHT22;5574;48.786;10.120;2023-06-04T02:50:40;14.40;91.10
11043;DHT22;5574;48.786;10.120;2023-06-04T02:53:08;14.40;90.70
11043;DHT22;5574;48.786;10.120;2023-06-04T02:55:34;14.30;90.50
11043;DHT22;5574;48.786;10.120;2023-06-04T02:58:02;14.30;90.10
11043;DHT22;5574;48.786;10.120;2023-06-04T03:00:29;14.20;89.80
11043;DHT22;5574;48.786;10.120;2023-06-04T03:02:56;14.20;91.00
11043;DHT22;5574;48.786;10.120;2023-06-04T03:05:27;14.20;91.60
11043;DHT22;5574;48.786;10.120;2023-06-04T03:07:56;14.10;90.20
11043;DHT22;5574;48.786;10.120;2023-06-04T03:10:24;14.10;90.40
11043;DHT22;5574;48.786;10.120;2023-06-04T03:12:50;14.10;91.20
11043;DHT22;5574;48.786;10.120;2023-06-04T03:15:19;14.10;90.00
11043;DHT22;5574;48.786;10.120;2023-06-04T03:17:45;14.00;89.40
11043;DHT22;5574;48.786;10.120;2023-06-04T03:20:12;14.00;90.00
11043;DHT22;5574;48.786;10.120;2023-06-04T03:22:39;14.00;90.60
11043;DHT22;5574;48.786;10.120;2023-06-04T03:25:06;14.00;91.00
11043;DHT22;5574;48.786;10.120;2023-06-04T03:27:33;14.10;92.40
11043;DHT22;5574;48.786;10.120;2023-06-04T03:30:00;14.10;91.60
11043;DHT22;5574;48.786;10.120;2023-06-04T03:32:28;14.10;90.40
11043;DHT22;5574;48.786;10.120;2023-06-04T03:34:54;14.10;91.30
11043;DHT22;5574;48.786;10.120;2023-06-04T03:37:21;14.10;89.60
11043;DHT22;5574;48.786;10.120;2023-06-04T03:39:48;14.00;90.60
11043;DHT22;5574;48.786;10.120;2023-06-04T03:42:14;14.00;89.20
11043;DHT22;5574;48.786;10.120;2023-06-04T03:44:41;14.00;90.80
11043;DHT22;5574;48.786;10.120;2023-06-04T03:47:08;14.00;90.20
11043;DHT22;5574;48.786;10.120;2023-06-04T03:49:36;14.00;90.10
11043;DHT22;5574;48.786;10.120;2023-06-04T03:52:03;13.90;90.10
11043;DHT22;5574;48.786;10.120;2023-06-04T03:54:29;13.90;88.60
11043;DHT22;5574;48.786;10.120;2023-06-04T03:56:56;13.90;90.20
11043;DHT22;5574;48.786;10.120;2023-06-04T03:59:23;13.80;90.30
11043;DHT22;5574;48.786;10.120;2023-06-04T04:01:49;13.80;90.20
11043;DHT22;5574;48.786;10.120;2023-06-04T04:04:16;13.80;90.50
11043;DHT22;5574;48.786;10.120;2023-06-04T04:06:44;13.80;90.00
11043;DHT22;5574;48.786;10.120;2023-06-04T04:09:11;13.80;90.20
11043;DHT22;5574;48.786;10.120;2023-06-04T04:11:37;13.80;90.30
11043;DHT22;5574;48.786;10.120;2023-06-04T04:14:04;13.70;90.20
11043;DHT22;5574;48.786;10.120;2023-06-04T04:16:31;13.80;91.80
11043;DHT22;5574;48.786;10.120;2023-06-04T04:18:57;13.80;91.80
11043;DHT22;5574;48.786;10.120;2023-06-04T04:21:24;13.80;89.10
11043;DHT22;5574;48.786;10.120;2023-06-04T04:23:52;13.90;90.00
11043;DHT22;5574;48.786;10.120;2023-06-04T04:26:19;13.90;91.10
11043;DHT22;5574;48.786;10.120;2023-06-04T04:28:45;13.90;88.80
11043;DHT22;5574;48.786;10.120;2023-06-04T04:31:12;13.90;90.60
11043;DHT22;5574;48.786;10.120;2023-06-04T04:33:39;13.90;90.30
11043;DHT22;5574;48.786;10.120;2023-06-04T04:36:06;13.90;88.40
11043;DHT22;5574;48.786;10.120;2023-06-04T04:38:37;14.00;90.60
11043;DHT22;5574;48.786;10.120;2023-06-04T04:41:06;14.00;91.00
11043;DHT22;5574;48.786;10.120;2023-06-04T04:43:35;14.10;90.00
11043;DHT22;5574;48.786;10.120;2023-06-04T04:46:03;14.10;89.20
11043;DHT22;5574;48.786;10.120;2023-06-04T04:48:29;14.10;90.40
11043;DHT22;5574;48.786;10.120;2023-06-04T04:50:56;14.20;90.00
11043;DHT22;5574;48.786;10.120;2023-06-04T04:53:23;14.30;91.90
11043;DHT22;5574;48.786;10.120;2023-06-04T04:55:50;14.30;88.10
11043;DHT22;5574;48.786;10.120;2023-06-04T04:58:18;14.40;90.60
11043;DHT22;5574;48.786;10.120;2023-06-04T05:00:44;14.40;89.00
11043;DHT22;5574;48.786;10.120;2023-06-04T05:03:13;14.40;88.80
11043;DHT22;5574;48.786;10.120;2023-06-04T05:05:40;14.40;90.60
11043;DHT22;5574;48.786;10.120;2023-06-04T05:08:06;14.40;88.50
11043;DHT22;5574;48.786;10.120;2023-06-04T05:10:33;14.40;91.30
11043;DHT22;5574;48.786;10.120;2023-06-04T05:13:01;14.50;89.70
11043;DHT22;5574;48.786;10.120;2023-06-04T05:15:29;14.60;89.30
11043;DHT22;5574;48.786;10.120;2023-06-04T05:17:55;14.70;89.80
11043;DHT22;5574;48.786;10.120;2023-06-04T05:20:23;14.80;89.30
11043;DHT22;5574;48.786;10.120;2023-06-04T05:22:50;14.90;87.40
11043;DHT22;5574;48.786;10.120;2023-06-04T05:25:17;15.00;88.40
11043;DHT22;5574;48.786;10.120;2023-06-04T05:27:44;15.10;87.40
11043;DHT22;5574;48.786;10.120;2023-06-04T05:30:14;15.20;87.20
11043;DHT22;5574;48.786;10.120;2023-06-04T05:32:43;15.30;87.20
11043;DHT22;5574;48.786;10.120;2023-06-04T05:35:09;15.40;87.10
11043;DHT22;5574;48.786;10.120;2023-06-04T05:37:37;15.50;88.10
11043;DHT22;5574;48.786;10.120;2023-06-04T05:40:06;15.60;85.30
11043;DHT22;5574;48.786;10.120;2023-06-04T05:42:35;15.80;88.60
11043;DHT22;5574;48.786;10.120;2023-06-04T05:45:01;15.90;87.10
11043;DHT22;5574;48.786;10.120;2023-06-04T05:47:28;16.00;88.20
11043;DHT22;5574;48.786;10.120;2023-06-04T05:49:57;16.10;89.50
11043;DHT22;5574;48.786;10.120;2023-06-04T05:52:24;16.30;90.50
11043;DHT22;5574;48.786;10.120;2023-06-04T05:54:50;16.50;87.30
11043;DHT22;5574;48.786;10.120;2023-06-04T05:57:17;16.50;84.60
11043;DHT22;5574;48.786;10.120;2023-06-04T05:59:43;16.50;81.00
11043;DHT22;5574;48.786;10.120;2023-06-04T06:02:11;16.60;83.10
11043;DHT22;5574;48.786;10.120;2023-06-04T06:04:38;16.60;81.00
11043;DHT22;5574;48.786;10.120;2023-06-04T06:07:06;16.70;85.20
11043;DHT22;5574;48.786;10.120;2023-06-04T06:09:33;16.70;81.60
11043;DHT22;5574;48.786;10.120;2023-06-04T06:12:01;16.80;81.40
11043;DHT22;5574;48.786;10.120;2023-06-04T06:14:27;16.90;84.90
11043;DHT22;5574;48.786;10.120;2023-06-04T06:16:54;17.00;81.80
11043;DHT22;5574;48.786;10.120;2023-06-04T06:19:21;17.10;81.60
11043;DHT22;5574;48.786;10.120;2023-06-04T06:21:47;17.20;82.70
11043;DHT22;5574;48.786;10.120;2023-06-04T06:24:15;17.30;79.80
11043;DHT22;5574;48.786;10.120;2023-06-04T06:26:42;17.40;83.20
11043;DHT22;5574;48.786;10.120;2023-06-04T06:29:09;17.40;80.50
11043;DHT22;5574;48.786;10.120;2023-06-04T06:31:35;17.50;82.00
11043;DHT22;5574;48.786;10.120;2023-06-04T06:34:02;17.60;83.70
11043;DHT22;5574;48.786;10.120;2023-06-04T06:36:29;17.70;80.50
11043;DHT22;5574;48.786;10.120;2023-06-04T06:38:56;17.80;79.90
11043;DHT22;5574;48.786;10.120;2023-06-04T06:41:24;17.80;81.20
11043;DHT22;5574;48.786;10.120;2023-06-04T06:43:51;17.90;82.90
11043;DHT22;5574;48.786;10.120;2023-06-04T06:46:18;18.00;80.30
11043;DHT22;5574;48.786;10.120;2023-06-04T06:48:44;18.00;80.30
11043;DHT22;5574;48.786;10.120;2023-06-04T06:51:12;17.90;77.20
11043;DHT22;5574;48.786;10.120;2023-06-04T06:53:39;18.00;78.70
11043;DHT22;5574;48.786;10.120;2023-06-04T06:56:06;17.90;76.20
11043;DHT22;5574;48.786;10.120;2023-06-04T06:58:34;18.00;75.80
11043;DHT22;5574;48.786;10.120;2023-06-04T07:01:01;18.10;77.90
11043;DHT22;5574;48.786;10.120;2023-06-04T07:03:28;18.20;79.70
11043;DHT22;5574;48.786;10.120;2023-06-04T07:05:54;18.30;78.30
11043;DHT22;5574;48.786;10.120;2023-06-04T07:08:21;18.50;79.70
11043;DHT22;5574;48.786;10.120;2023-06-04T07:10:48;18.60;78.90
11043;DHT22;5574;48.786;10.120;2023-06-04T07:13:14;18.50;77.70
11043;DHT22;5574;48.786;10.120;2023-06-04T07:15:43;18.70;78.80
11043;DHT22;5574;48.786;10.120;2023-06-04T07:18:09;18.80;77.40
11043;DHT22;5574;48.786;10.120;2023-06-04T07:20:36;18.80;77.40
11043;DHT22;5574;48.786;10.120;2023-06-04T07:23:03;18.80;76.80
11043;DHT22;5574;48.786;10.120;2023-06-04T07:25:30;18.80;76.60
11043;DHT22;5574;48.786;10.120;2023-06-04T07:27:56;18.90;76.40
11043;DHT22;5574;48.786;10.120;2023-06-04T07:30:23;19.00;76.30
11043;DHT22;5574;48.786;10.120;2023-06-04T07:32:51;19.20;76.50
11043;DHT22;5574;48.786;10.120;2023-06-04T07:35:18;19.20;76.90
11043;DHT22;5574;48.786;10.120;2023-06-04T07:37:45;19.40;77.70
11043;DHT22;5574;48.786;10.120;2023-06-04T07:40:14;19.30;76.60
11043;DHT22;5574;48.786;10.120;2023-06-04T07:42:42;19.30;76.70
11043;DHT22;5574;48.786;10.120;2023-06-04T07:45:09;19.40;76.30
11043;DHT22;5574;48.786;10.120;2023-06-04T07:47:36;19.50;75.40
11043;DHT22;5574;48.786;10.120;2023-06-04T07:50:06;19.50;75.50
11043;DHT22;5574;48.786;10.120;2023-06-04T07:52:33;19.70;75.90
11043;DHT22;5574;48.786;10.120;2023-06-04T07:55:00;19.70;75.70
11043;DHT22;5574;48.786;10.120;2023-06-04T07:57:27;19.70;74.70
11043;DHT22;5574;48.786;10.120;2023-06-04T07:59:53;19.90;75.40
11043;DHT22;5574;48.786;10.120;2023-06-04T08:02:22;20.00;75.50
11043;DHT22;5574;48.786;10.120;2023-06-04T08:04:49;20.10;73.40
11043;DHT22;5574;48.786;10.120;2023-06-04T08:07:17;20.10;73.60
11043;DHT22;5574;48.786;10.120;2023-06-04T08:09:44;20.10;71.70
11043;DHT22;5574;48.786;10.120;2023-06-04T08:12:11;20.40;75.60
11043;DHT22;5574;48.786;10.120;2023-06-04T08:14:37;20.40;72.00
11043;DHT22;5574;48.786;10.120;2023-06-04T08:17:04;20.50;71.00
11043;DHT22;5574;48.786;10.120;2023-06-04T08:19:31;20.60;76.20
11043;DHT22;5574;48.786;10.120;2023-06-04T08:21:57;20.60;71.90
11043;DHT22;5574;48.786;10.120;2023-06-04T08:24:25;20.70;71.20
11043;DHT22;5574;48.786;10.120;2023-06-04T08:26:52;20.70;71.20
11043;DHT22;5574;48.786;10.120;2023-06-04T08:29:19;20.80;70.60
11043;DHT22;5574;48.786;10.120;2023-06-04T08:31:45;20.80;70.00
11043;DHT22;5574;48.786;10.120;2023-06-04T08:34:12;20.80;71.30
11043;DHT22;5574;48.786;10.120;2023-06-04T08:36:39;20.90;70.90
11043;DHT22;5574;48.786;10.120;2023-06-04T08:39:06;21.00;70.80
11043;DHT22;5574;48.786;10.120;2023-06-04T08:41:41;21.00;69.70
11043;DHT22;5574;48.786;10.120;2023-06-04T08:44:09;21.00;69.20
11043;DHT22;5574;48.786;10.120;2023-06-04T08:46:38;21.10;70.30
11043;DHT22;5574;48.786;10.120;2023-06-04T08:49:06;21.20;71.10
11043;DHT22;5574;48.786;10.120;2023-06-04T08:51:34;21.30;71.80
11043;DHT22;5574;48.786;10.120;2023-06-04T08:54:03;21.20;66.70
11043;DHT22;5574;48.786;10.120;2023-06-04T08:56:31;21.30;70.10
11043;DHT22;5574;48.786;10.120;2023-06-04T08:59:02;21.50;68.80
11043;DHT22;5574;48.786;10.120;2023-06-04T09:01:29;21.60;67.40
11043;DHT22;5574;48.786;10.120;2023-06-04T09:03:57;21.70;68.00
11043;DHT22;5574;48.786;10.120;2023-06-04T09:06:25;21.50;65.40
11043;DHT22;5574;48.786;10.120;2023-06-04T09:08:54;21.60;67.90
11043;DHT22;5574;48.786;10.120;2023-06-04T09:11:22;21.70;68.00
11043;DHT22;5574;48.786;10.120;2023-06-04T09:13:51;21.90;66.90
11043;DHT22;5574;48.786;10.120;2023-06-04T09:16:20;21.80;64.80
11043;DHT22;5574;48.786;10.120;2023-06-04T09:18:47;21.80;68.10
11043;DHT22;5574;48.786;10.120;2023-06-04T09:21:14;22.00;66.80
11043;DHT22;5574;48.786;10.120;2023-06-04T09:23:44;22.20;67.00
11043;DHT22;5574;48.786;10.120;2023-06-04T09:26:11;22.40;66.80
11043;DHT22;5574;48.786;10.120;2023-06-04T09:28:40;22.50;66.80
11043;DHT22;5574;48.786;10.120;2023-06-04T09:31:08;22.20;63.80
11043;DHT22;5574;48.786;10.120;2023-06-04T09:33:43;22.20;66.60
11043;DHT22;5574;48.786;10.120;2023-06-04T09:36:10;22.50;68.80
11043;DHT22;5574;48.786;10.120;2023-06-04T09:38:37;22.50;64.50
11043;DHT22;5574;48.786;10.120;2023-06-04T09:41:10;22.60;65.30
11043;DHT22;5574;48.786;10.120;2023-06-04T09:43:37;22.70;66.30
11043;DHT22;5574;48.786;10.120;2023-06-04T09:46:10;22.90;66.80
11043;DHT22;5574;48.786;10.120;2023-06-04T09:48:37;23.00;65.10
11043;DHT22;5574;48.786;10.120;2023-06-04T09:51:09;23.00;64.60
11043;DHT22;5574;48.786;10.120;2023-06-04T09:53:36;23.10;63.00
11043;DHT22;5574;48.786;10.120;2023-06-04T09:56:04;23.10;64.00
11043;DHT22;5574;48.786;10.120;2023-06-04T09:58:32;23.00;64.20
11043;DHT22;5574;48.786;10.120;2023-06-04T10:01:00;23.30;66.70
11043;DHT22;5574;48.786;10.120;2023-06-04T10:03:30;23.40;64.20
11043;DHT22;5574;48.786;10.120;2023-06-04T10:05:59;23.50;64.60
11043;DHT22;5574;48.786;10.120;2023-06-04T10:08:29;23.50;62.30
11043;DHT22;5574;48.786;10.120;2023-06-04T10:10:59;23.60;63.70
11043;DHT22;5574;48.786;10.120;2023-06-04T10:13:28;23.70;64.30
11043;DHT22;5574;48.786;10.120;2023-06-04T10:15:57;23.80;63.60
11043;DHT22;5574;48.786;10.120;2023-06-04T10:18:27;24.00;62.40
11043;DHT22;5574;48.786;10.120;2023-06-04T10:20:55;24.10;63.20
11043;DHT22;5574;48.786;10.120;2023-06-04T10:23:23;23.90;62.90
11043;DHT22;5574;48.786;10.120;2023-06-04T10:25:51;23.70;61.40
11043;DHT22;5574;48.786;10.120;2023-06-04T10:28:20;23.80;61.70
11043;DHT22;5574;48.786;10.120;2023-06-04T10:30:47;23.90;60.60
11043;DHT22;5574;48.786;10.120;2023-06-04T10:33:16;23.90;59.40
11043;DHT22;5574;48.786;10.120;2023-06-04T10:35:43;24.20;61.00
11043;DHT22;5574;48.786;10.120;2023-06-04T10:38:11;24.20;58.80
11043;DHT22;5574;48.786;10.120;2023-06-04T10:40:39;24.20;59.70
11043;DHT22;5574;48.786;10.120;2023-06-04T10:43:08;23.80;58.40
11043;DHT22;5574;48.786;10.120;2023-06-04T10:45:35;24.00;60.00
11043;DHT22;5574;48.786;10.120;2023-06-04T10:48:02;23.90;60.10
11043;DHT22;5574;48.786;10.120;2023-06-04T10:50:29;23.70;59.30
11043;DHT22;5574;48.786;10.120;2023-06-04T10:52:56;23.80;60.80
11043;DHT22;5574;48.786;10.120;2023-06-04T10:55:24;24.10;59.60
11043;DHT22;5574;48.786;10.120;2023-06-04T10:57:52;24.40;61.00
11043;DHT22;5574;48.786;10.120;2023-06-04T11:00:20;24.40;59.00
11043;DHT22;5574;48.786;10.120;2023-06-04T11:02:51;24.40;60.50
11043;DHT22;5574;48.786;10.120;2023-06-04T11:05:18;24.00;58.80
11043;DHT22;5574;48.786;10.120;2023-06-04T11:07:47;24.10;62.00
11043;DHT22;5574;48.786;10.120;2023-06-04T11:10:15;24.30;62.10
11043;DHT22;5574;48.786;10.120;2023-06-04T11:12:43;24.40;59.40
11043;DHT22;5574;48.786;10.120;2023-06-04T11:15:10;24.20;58.50
11043;DHT22;5574;48.786;10.120;2023-06-04T11:17:48;24.40;59.40
11043;DHT22;5574;48.786;10.120;2023-06-04T11:20:16;24.50;61.10
11043;DHT22;5574;48.786;10.120;2023-06-04T11:22:50;24.60;59.20
11043;DHT22;5574;48.786;10.120;2023-06-04T11:25:17;24.60;61.30
11043;DHT22;5574;48.786;10.120;2023-06-04T11:27:45;24.30;58.20
11043;DHT22;5574;48.786;10.120;2023-06-04T11:30:12;24.60;60.30
11043;DHT22;5574;48.786;10.120;2023-06-04T11:32:41;24.70;60.10
11043;DHT22;5574;48.786;10.120;2023-06-04T11:35:08;25.10;61.20
11043;DHT22;5574;48.786;10.120;2023-06-04T11:37:37;25.10;59.30
11043;DHT22;5574;48.786;10.120;2023-06-04T11:40:15;25.10;58.80
11043;DHT22;5574;48.786;10.120;2023-06-04T11:42:42;25.30;58.90
11043;DHT22;5574;48.786;10.120;2023-06-04T11:45:10;25.10;58.30
11043;DHT22;5574;48.786;10.120;2023-06-04T11:47:37;25.20;57.80
11043;DHT22;5574;48.786;10.120;2023-06-04T11:50:06;25.20;58.40
11043;DHT22;5574;48.786;10.120;2023-06-04T11:52:33;25.10;58.30
11043;DHT22;5574;48.786;10.120;2023-06-04T11:55:00;25.40;58.20
11043;DHT22;5574;48.786;10.120;2023-06-04T11:57:27;25.40;56.90
11043;DHT22;5574;48.786;10.120;2023-06-04T11:59:54;25.10;56.20
11043;DHT22;5574;48.786;10.120;2023-06-04T12:02:21;25.10;60.60
11043;DHT22;5574;48.786;10.120;2023-06-04T12:04:47;25.30;58.70
11043;DHT22;5574;48.786;10.120;2023-06-04T12:07:19;25.50;58.20
11043;DHT22;5574;48.786;10.120;2023-06-04T12:09:49;25.00;55.40
11043;DHT22;5574;48.786;10.120;2023-06-04T12:12:21;25.10;57.90
11043;DHT22;5574;48.786;10.120;2023-06-04T12:14:56;25.00;57.20
11043;DHT22;5574;48.786;10.120;2023-06-04T12:17:23;25.40;57.60
11043;DHT22;5574;48.786;10.120;2023-06-04T12:19:51;25.00;55.50
11043;DHT22;5574;48.786;10.120;2023-06-04T12:22:19;24.70;56.50
11043;DHT22;5574;48.786;10.120;2023-06-04T12:24:47;24.90;57.60
11043;DHT22;5574;48.786;10.120;2023-06-04T12:27:14;24.70;56.60
11043;DHT22;5574;48.786;10.120;2023-06-04T12:29:41;24.30;58.30
11043;DHT22;5574;48.786;10.120;2023-06-04T12:32:09;24.50;60.00
11043;DHT22;5574;48.786;10.120;2023-06-04T12:34:37;24.50;58.10
11043;DHT22;5574;48.786;10.120;2023-06-04T12:37:03;24.40;56.50
11043;DHT22;5574;48.786;10.120;2023-06-04T12:39:33;24.80;57.50
11043;DHT22;5574;48.786;10.120;2023-06-04T12:42:02;24.90;55.40
11043;DHT22;5574;48.786;10.120;2023-06-04T12:44:28;25.10;55.80
11043;DHT22;5574;48.786;10.120;2023-06-04T12:46:56;25.10;56.90
11043;DHT22;5574;48.786;10.120;2023-06-04T12:49:22;24.90;56.00
11043;DHT22;5574;48.786;10.120;2023-06-04T12:51:49;24.80;55.70
11043;DHT22;5574;48.786;10.120;2023-06-04T12:54:16;24.90;55.70
11043;DHT22;5574;48.786;10.120;2023-06-04T12:56:44;24.90;56.10
11043;DHT22;5574;48.786;10.120;2023-06-04T12:59:11;24.40;54.70
11043;DHT22;5574;48.786;10.120;2023-06-04T13:01:38;24.20;55.30
11043;DHT22;5574;48.786;10.120;2023-06-04T13:04:04;24.10;55.50
11043;DHT22;5574;48.786;10.120;2023-06-04T13:06:33;24.20;55.70
11043;DHT22;5574;48.786;10.120;2023-06-04T13:09:00;24.50;57.30
11043;DHT22;5574;48.786;10.120;2023-06-04T13:11:27;24.90;56.70
11043;DHT22;5574;48.786;10.120;2023-06-04T13:13:55;25.20;57.00
11043;DHT22;5574;48.786;10.120;2023-06-04T13:16:21;25.30;55.80
11043;DHT22;5574;48.786;10.120;2023-06-04T13:18:48;24.80;56.40
11043;DHT22;5574;48.786;10.120;2023-06-04T13:21:15;24.60;57.30
11043;DHT22;5574;48.786;10.120;2023-06-04T13:23:41;24.50;57.20
11043;DHT22;5574;48.786;10.120;2023-06-04T13:26:08;24.50;57.00
11043;DHT22;5574;48.786;10.120;2023-06-04T13:28:35;24.60;54.60
11043;DHT22;5574;48.786;10.120;2023-06-04T13:31:03;24.60;55.40
11043;DHT22;5574;48.786;10.120;2023-06-04T13:33:30;25.10;56.80
11043;DHT22;5574;48.786;10.120;2023-06-04T13:35:56;25.40;56.40
11043;DHT22;5574;48.786;10.120;2023-06-04T13:38:23;25.60;55.80
11043;DHT22;5574;48.786;10.120;2023-06-04T13:40:50;25.80;56.50
11043;DHT22;5574;48.786;10.120;2023-06-04T13:43:16;25.80;52.90
11043;DHT22;5574;48.786;10.120;2023-06-04T13:45:43;25.80;52.70
11043;DHT22;5574;48.786;10.120;2023-06-04T13:48:12;25.80;52.40
11043;DHT22;5574;48.786;10.120;2023-06-04T13:50:39;25.40;54.30
11043;DHT22;5574;48.786;10.120;2023-06-04T13:53:07;24.90;53.70
11043;DHT22;5574;48.786;10.120;2023-06-04T13:55:34;24.70;54.00
11043;DHT22;5574;48.786;10.120;2023-06-04T13:58:00;24.80;54.10
11043;DHT22;5574;48.786;10.120;2023-06-04T14:00:27;24.90;53.30
11043;DHT22;5574;48.786;10.120;2023-06-04T14:02:55;24.90;53.90
11043;DHT22;5574;48.786;10.120;2023-06-04T14:05:25;25.10;55.20
11043;DHT22;5574;48.786;10.120;2023-06-04T14:07:53;25.00;52.40
11043;DHT22;5574;48.786;10.120;2023-06-04T14:10:20;25.00;53.00
11043;DHT22;5574;48.786;10.120;2023-06-04T14:12:46;25.20;55.10
11043;DHT22;5574;48.786;10.120;2023-06-04T14:15:13;25.30;54.00
11043;DHT22;5574;48.786;10.120;2023-06-04T14:17:40;25.40;54.20
11043;DHT22;5574;48.786;10.120;2023-06-04T14:20:08;25.70;55.40
11043;DHT22;5574;48.786;10.120;2023-06-04T14:22:37;25.40;52.20
11043;DHT22;5574;48.786;10.120;2023-06-04T14:25:04;25.30;52.10
11043;DHT22;5574;48.786;10.120;2023-06-04T14:27:32;25.30;53.90
11043;DHT22;5574;48.786;10.120;2023-06-04T14:29:59;25.50;54.30
11043;DHT22;5574;48.786;10.120;2023-06-04T14:32:26;25.40;53.90
11043;DHT22;5574;48.786;10.120;2023-06-04T14:34:52;25.40;53.70
11043;DHT22;5574;48.786;10.120;2023-06-04T14:37:19;25.20;52.10
11043;DHT22;5574;48.786;10.120;2023-06-04T14:39:47;25.40;53.40
11043;DHT22;5574;48.786;10.120;2023-06-04T14:42:14;25.20;53.70
11043;DHT22;5574;48.786;10.120;2023-06-04T14:44:41;24.80;54.60
11043;DHT22;5574;48.786;10.120;2023-06-04T14:47:08;24.40;54.20
11043;DHT22;5574;48.786;10.120;2023-06-04T14:49:34;24.20;55.40
11043;DHT22;5574;48.786;10.120;2023-06-04T14:52:03;24.20;55.10
11043;DHT22;5574;48.786;10.120;2023-06-04T14:54:29;24.20;55.50
11043;DHT22;5574;48.786;10.120;2023-06-04T14:56:57;24.60;55.70
11043;DHT22;5574;48.786;10.120;2023-06-04T14:59:24;24.90;54.60
11043;DHT22;5574;48.786;10.120;2023-06-04T15:01:52;24.90;53.30
11043;DHT22;5574;48.786;10.120;2023-06-04T15:04:19;25.00;53.70
11043;DHT22;5574;48.786;10.120;2023-06-04T15:06:46;25.10;54.80
11043;DHT22;5574;48.786;10.120;2023-06-04T15:09:13;24.90;55.10
11043;DHT22;5574;48.786;10.120;2023-06-04T15:11:41;25.20;55.10
11043;DHT22;5574;48.786;10.120;2023-06-04T15:14:09;25.40;55.10
11043;DHT22;5574;48.786;10.120;2023-06-04T15:16:35;25.40;54.50
11043;DHT22;5574;48.786;10.120;2023-06-04T15:19:02;25.20;54.60
11043;DHT22;5574;48.786;10.120;2023-06-04T15:21:29;25.00;56.20
11043;DHT22;5574;48.786;10.120;2023-06-04T15:23:55;24.70;55.90
11043;DHT22;5574;48.786;10.120;2023-06-04T15:26:22;24.50;57.10
11043;DHT22;5574;48.786;10.120;2023-06-04T15:28:52;24.30;57.80
11043;DHT22;5574;48.786;10.120;2023-06-04T15:31:20;24.10;57.80